sensor_id;sensor_type;location;lat;lon;timestamp;temperature;humidity
65573;SHT30;52214;50.940;13.996;2022-12-20T00:00:58;-1.01;99.99
65573;SHT30;52214;50.940;13.996;2022-12-20T00:03:23;-1.11;99.99
65573;SHT30;52214;50.940;13.996;2022-12-20T00:05:49;-1.08;99.99
65573;SHT30;52214;50.940;13.996;2022-12-20T00:08:15;-0.97;99.99
65573;SHT30;52214;50.940;13.996;2022-12-20T00:10:42;-0.92;99.99
65573;SHT30;52214;50.940;13.996;2022-12-20T00:13:09;-0.90;99.99
65573;SHT30;52214;50.940;13.996;2022-12-20T00:15:34;-0.86;99.99
65573;SHT30;52214;50.940;13.996;2022-12-20T00:18:00;-0.87;99.99
65573;SHT30;52214;50.940;13.996;2022-12-20T00:20:26;-0.80;99.99
65573;SHT30;52214;50.940;13.996;2022-12-20T00:22:52;-0.75;99.99
65573;SHT30;52214;50.940;13.996;2022-12-20T00:25:18;-0.70;99.99
65573;SHT30;52214;50.940;13.996;2022-12-20T00:27:46;-0.70;99.99
65573;SHT30;52214;50.940;13.996;2022-12-20T00:30:12;-0.68;99.99
65573;SHT30;52214;50.940;13.996;2022-12-20T00:32:37;-0.69;99.99
65573;SHT30;52214;50.940;13.996;2022-12-20T00:35:03;-0.68;99.99
65573;SHT30;52214;50.940;13.996;2022-12-20T00:37:29;-0.69;99.99
65573;SHT30;52214;50.940;13.996;2022-12-20T00:39:54;-0.62;99.99
65573;SHT30;52214;50.940;13.996;2022-12-20T00:42:20;-0.61;99.98
65573;SHT30;52214;50.940;13.996;2022-12-20T00:44:45;-0.59;99.83
65573;SHT30;52214;50.940;13.996;2022-12-20T00:47:11;-0.62;99.99
65573;SHT30;52214;50.940;13.996;2022-12-20T00:49:36;-0.72;99.99
65573;SHT30;52214;50.940;13.996;2022-12-20T00:52:02;-0.72;99.99
65573;SHT30;52214;50.940;13.996;2022-12-20T00:54:27;-0.70;99.99
65573;SHT30;52214;50.940;13.996;2022-12-20T00:56:53;-0.69;99.99
65573;SHT30;52214;50.940;13.996;2022-12-20T00:59:19;-0.65;99.99
65573;SHT30;52214;50.940;13.996;2022-12-20T01:01:46;-0.64;99.99
65573;SHT30;52214;50.940;13.996;2022-12-20T01:04:12;-0.70;99.99
65573;SHT30;52214;50.940;13.996;2022-12-20T01:06:37;-0.68;99.99
65573;SHT30;52214;50.940;13.996;2022-12-20T01:09:04;-0.65;99.99
65573;SHT30;52214;50.940;13.996;2022-12-20T01:11:31;-0.76;99.99
65573;SHT30;52214;50.940;13.996;2022-12-20T01:14:00;-0.72;99.99
65573;SHT30;52214;50.940;13.996;2022-12-20T01:16:29;-0.72;99.99
65573;SHT30;52214;50.940;13.996;2022-12-20T01:18:56;-0.70;99.99
65573;SHT30;52214;50.940;13.996;2022-12-20T01:21:23;-0.69;99.99
65573;SHT30;52214;50.940;13.996;2022-12-20T01:23:49;-0.69;99.99
65573;SHT30;52214;50.940;13.996;2022-12-20T01:26:18;-0.69;99.99
65573;SHT30;52214;50.940;13.996;2022-12-20T01:28:45;-0.61;99.99
65573;SHT30;52214;50.940;13.996;2022-12-20T01:31:13;-0.58;99.87
65573;SHT30;52214;50.940;13.996;2022-12-20T01:33:39;-0.58;99.96
65573;SHT30;52214;50.940;13.996;2022-12-20T01:36:07;-0.57;99.99
65573;SHT30;52214;50.940;13.996;2022-12-20T01:38:35;-0.51;99.71
65573;SHT30;52214;50.940;13.996;2022-12-20T01:41:00;-0.52;99.74
65573;SHT30;52214;50.940;13.996;2022-12-20T01:43:46;-0.48;99.79
65573;SHT30;52214;50.940;13.996;2022-12-20T01:46:14;-0.39;99.69
65573;SHT30;52214;50.940;13.996;2022-12-20T01:48:41;-0.38;99.42
65573;SHT30;52214;50.940;13.996;2022-12-20T01:51:08;-0.35;99.13
65573;SHT30;52214;50.940;13.996;2022-12-20T01:53:34;-0.32;99.29
65573;SHT30;52214;50.940;13.996;2022-12-20T01:56:03;-0.28;98.85
65573;SHT30;52214;50.940;13.996;2022-12-20T01:58:29;-0.25;98.58
65573;SHT30;52214;50.940;13.996;2022-12-20T02:00:56;-0.27;98.87
65573;SHT30;52214;50.940;13.996;2022-12-20T02:03:24;-0.27;98.89
65573;SHT30;52214;50.940;13.996;2022-12-20T02:05:49;-0.21;98.66
65573;SHT30;52214;50.940;13.996;2022-12-20T02:08:17;-0.18;98.28
65573;SHT30;52214;50.940;13.996;2022-12-20T02:13:47;-0.22;98.73
65573;SHT30;52214;50.940;13.996;2022-12-20T02:16:22;-0.13;98.58
65573;SHT30;52214;50.940;13.996;2022-12-20T02:19:40;-0.14;98.60
65573;SHT30;52214;50.940;13.996;2022-12-20T02:22:16;-0.21;99.09
65573;SHT30;52214;50.940;13.996;2022-12-20T02:27:34;-0.15;98.58
65573;SHT30;52214;50.940;13.996;2022-12-20T02:30:17;-0.15;98.55
65573;SHT30;52214;50.940;13.996;2022-12-20T02:32:58;-0.13;98.29
65573;SHT30;52214;50.940;13.996;2022-12-20T02:35:28;-0.06;98.55
65573;SHT30;52214;50.940;13.996;2022-12-20T02:37:57;-0.02;98.20
65573;SHT30;52214;50.940;13.996;2022-12-20T02:40:26;-0.06;98.54
65573;SHT30;52214;50.940;13.996;2022-12-20T02:42:59;-0.09;97.85
65573;SHT30;52214;50.940;13.996;2022-12-20T02:45:29;-0.09;98.06
65573;SHT30;52214;50.940;13.996;2022-12-20T02:48:09;-0.09;98.43
65573;SHT30;52214;50.940;13.996;2022-12-20T02:50:38;-0.02;98.45
65573;SHT30;52214;50.940;13.996;2022-12-20T02:53:06;-0.03;98.46
65573;SHT30;52214;50.940;13.996;2022-12-20T02:55:53;-0.07;99.02
65573;SHT30;52214;50.940;13.996;2022-12-20T03:01:33;0.00;98.46
65573;SHT30;52214;50.940;13.996;2022-12-20T03:04:00;0.08;98.32
65573;SHT30;52214;50.940;13.996;2022-12-20T03:06:27;0.10;98.46
65573;SHT30;52214;50.940;13.996;2022-12-20T03:08:55;0.07;98.35
65573;SHT30;52214;50.940;13.996;2022-12-20T03:11:20;0.08;98.24
65573;SHT30;52214;50.940;13.996;2022-12-20T03:13:46;0.03;98.56
65573;SHT30;52214;50.940;13.996;2022-12-20T03:16:12;0.08;98.14
65573;SHT30;52214;50.940;13.996;2022-12-20T03:18:37;0.13;98.23
65573;SHT30;52214;50.940;13.996;2022-12-20T03:21:03;0.10;98.26
65573;SHT30;52214;50.940;13.996;2022-12-20T03:23:29;0.11;97.70
65573;SHT30;52214;50.940;13.996;2022-12-20T03:25:54;0.08;98.30
65573;SHT30;52214;50.940;13.996;2022-12-20T03:28:20;0.14;98.12
65573;SHT30;52214;50.940;13.996;2022-12-20T03:30:46;0.14;98.27
65573;SHT30;52214;50.940;13.996;2022-12-20T03:33:11;0.10;98.63
65573;SHT30;52214;50.940;13.996;2022-12-20T03:35:37;0.06;98.74
65573;SHT30;52214;50.940;13.996;2022-12-20T03:38:03;0.11;98.31
65573;SHT30;52214;50.940;13.996;2022-12-20T03:40:28;0.07;98.30
65573;SHT30;52214;50.940;13.996;2022-12-20T03:42:54;0.14;97.90
65573;SHT30;52214;50.940;13.996;2022-12-20T03:45:19;0.15;98.13
65573;SHT30;52214;50.940;13.996;2022-12-20T03:47:45;0.13;98.28
65573;SHT30;52214;50.940;13.996;2022-12-20T03:50:11;0.17;98.21
65573;SHT30;52214;50.940;13.996;2022-12-20T03:52:36;0.14;98.24
65573;SHT30;52214;50.940;13.996;2022-12-20T03:55:03;0.17;98.33
65573;SHT30;52214;50.940;13.996;2022-12-20T03:57:29;0.17;98.03
65573;SHT30;52214;50.940;13.996;2022-12-20T03:59:54;0.19;97.63
65573;SHT30;52214;50.940;13.996;2022-12-20T04:02:20;0.25;97.81
65573;SHT30;52214;50.940;13.996;2022-12-20T04:04:47;0.18;97.95
65573;SHT30;52214;50.940;13.996;2022-12-20T04:07:13;0.15;97.92
65573;SHT30;52214;50.940;13.996;2022-12-20T04:09:38;0.24;97.74
65573;SHT30;52214;50.940;13.996;2022-12-20T04:12:04;0.18;97.28
65573;SHT30;52214;50.940;13.996;2022-12-20T04:14:30;0.14;97.51
65573;SHT30;52214;50.940;13.996;2022-12-20T04:16:56;0.13;97.56
65573;SHT30;52214;50.940;13.996;2022-12-20T04:19:21;0.18;97.55
65573;SHT30;52214;50.940;13.996;2022-12-20T04:21:47;0.18;97.77
65573;SHT30;52214;50.940;13.996;2022-12-20T04:24:12;0.21;97.48
65573;SHT30;52214;50.940;13.996;2022-12-20T04:26:38;0.22;97.71
65573;SHT30;52214;50.940;13.996;2022-12-20T04:29:03;0.26;96.85
65573;SHT30;52214;50.940;13.996;2022-12-20T04:31:29;0.26;97.04
65573;SHT30;52214;50.940;13.996;2022-12-20T04:33:54;0.25;97.23
65573;SHT30;52214;50.940;13.996;2022-12-20T04:36:20;0.22;96.92
65573;SHT30;52214;50.940;13.996;2022-12-20T04:38:46;0.22;96.56
65573;SHT30;52214;50.940;13.996;2022-12-20T04:41:11;0.17;97.14
65573;SHT30;52214;50.940;13.996;2022-12-20T04:43:54;0.21;97.09
65573;SHT30;52214;50.940;13.996;2022-12-20T04:46:21;0.22;97.01
65573;SHT30;52214;50.940;13.996;2022-12-20T04:48:47;0.25;97.23
65573;SHT30;52214;50.940;13.996;2022-12-20T04:51:12;0.28;97.38
65573;SHT30;52214;50.940;13.996;2022-12-20T04:53:38;0.22;97.56
65573;SHT30;52214;50.940;13.996;2022-12-20T04:56:27;0.24;97.57
65573;SHT30;52214;50.940;13.996;2022-12-20T04:58:54;0.26;97.54
65573;SHT30;52214;50.940;13.996;2022-12-20T05:01:20;0.29;97.91
65573;SHT30;52214;50.940;13.996;2022-12-20T05:03:48;0.34;97.72
65573;SHT30;52214;50.940;13.996;2022-12-20T05:06:14;0.24;97.84
65573;SHT30;52214;50.940;13.996;2022-12-20T05:08:40;0.28;97.67
65573;SHT30;52214;50.940;13.996;2022-12-20T05:11:07;0.31;97.50
65573;SHT30;52214;50.940;13.996;2022-12-20T05:13:33;0.24;97.93
65573;SHT30;52214;50.940;13.996;2022-12-20T05:15:58;0.25;98.40
65573;SHT30;52214;50.940;13.996;2022-12-20T05:18:25;0.31;97.92
65573;SHT30;52214;50.940;13.996;2022-12-20T05:20:54;0.29;98.53
65573;SHT30;52214;50.940;13.996;2022-12-20T05:23:40;0.32;98.60
65573;SHT30;52214;50.940;13.996;2022-12-20T05:26:25;0.32;98.62
65573;SHT30;52214;50.940;13.996;2022-12-20T05:28:51;0.38;98.47
65573;SHT30;52214;50.940;13.996;2022-12-20T05:31:16;0.34;98.21
65573;SHT30;52214;50.940;13.996;2022-12-20T05:33:42;0.38;98.54
65573;SHT30;52214;50.940;13.996;2022-12-20T05:36:08;0.38;98.43
65573;SHT30;52214;50.940;13.996;2022-12-20T05:38:33;0.40;97.97
65573;SHT30;52214;50.940;13.996;2022-12-20T05:40:59;0.35;98.25
65573;SHT30;52214;50.940;13.996;2022-12-20T05:43:24;0.38;98.24
65573;SHT30;52214;50.940;13.996;2022-12-20T05:45:51;0.35;98.26
65573;SHT30;52214;50.940;13.996;2022-12-20T05:48:18;0.40;98.06
65573;SHT30;52214;50.940;13.996;2022-12-20T05:50:45;0.37;97.93
65573;SHT30;52214;50.940;13.996;2022-12-20T05:53:14;0.31;98.20
65573;SHT30;52214;50.940;13.996;2022-12-20T05:55:45;0.29;97.59
65573;SHT30;52214;50.940;13.996;2022-12-20T05:58:12;0.32;98.64
65573;SHT30;52214;50.940;13.996;2022-12-20T06:00:41;0.28;98.01
65573;SHT30;52214;50.940;13.996;2022-12-20T06:03:08;0.31;98.40
65573;SHT30;52214;50.940;13.996;2022-12-20T06:05:36;0.28;98.50
65573;SHT30;52214;50.940;13.996;2022-12-20T06:08:03;0.28;98.15
65573;SHT30;52214;50.940;13.996;2022-12-20T06:10:30;0.28;98.52
65573;SHT30;52214;50.940;13.996;2022-12-20T06:12:55;0.31;98.98
65573;SHT30;52214;50.940;13.996;2022-12-20T06:15:21;0.29;98.41
65573;SHT30;52214;50.940;13.996;2022-12-20T06:17:46;0.34;98.65
65573;SHT30;52214;50.940;13.996;2022-12-20T06:20:12;0.34;98.64
65573;SHT30;52214;50.940;13.996;2022-12-20T06:22:37;0.26;98.97
65573;SHT30;52214;50.940;13.996;2022-12-20T06:25:04;0.35;98.85
65573;SHT30;52214;50.940;13.996;2022-12-20T06:29:47;0.31;97.91
65573;SHT30;52214;50.940;13.996;2022-12-20T06:32:16;0.35;98.20
65573;SHT30;52214;50.940;13.996;2022-12-20T06:34:42;0.29;98.18
65573;SHT30;52214;50.940;13.996;2022-12-20T06:37:08;0.17;98.97
65573;SHT30;52214;50.940;13.996;2022-12-20T06:39:33;0.26;98.37
65573;SHT30;52214;50.940;13.996;2022-12-20T06:41:59;0.26;99.15
65573;SHT30;52214;50.940;13.996;2022-12-20T06:44:24;0.38;98.31
65573;SHT30;52214;50.940;13.996;2022-12-20T06:46:50;0.34;97.96
65573;SHT30;52214;50.940;13.996;2022-12-20T06:49:15;0.32;98.23
65573;SHT30;52214;50.940;13.996;2022-12-20T06:51:41;0.37;97.74
65573;SHT30;52214;50.940;13.996;2022-12-20T06:56:44;0.31;97.32
65573;SHT30;52214;50.940;13.996;2022-12-20T06:59:09;0.22;98.24
65573;SHT30;52214;50.940;13.996;2022-12-20T07:01:35;0.24;97.08
65573;SHT30;52214;50.940;13.996;2022-12-20T07:04:00;0.21;96.28
65573;SHT30;52214;50.940;13.996;2022-12-20T07:06:26;0.25;96.50
65573;SHT30;52214;50.940;13.996;2022-12-20T07:08:54;0.25;96.68
65573;SHT30;52214;50.940;13.996;2022-12-20T07:11:20;0.22;96.68
65573;SHT30;52214;50.940;13.996;2022-12-20T07:13:45;0.14;97.08
65573;SHT30;52214;50.940;13.996;2022-12-20T07:16:11;0.21;97.06
65573;SHT30;52214;50.940;13.996;2022-12-20T07:18:36;0.11;97.07
65573;SHT30;52214;50.940;13.996;2022-12-20T07:23:39;0.24;97.40
65573;SHT30;52214;50.940;13.996;2022-12-20T07:26:04;0.21;97.13
65573;SHT30;52214;50.940;13.996;2022-12-20T07:28:30;0.31;97.09
65573;SHT30;52214;50.940;13.996;2022-12-20T07:30:59;0.28;96.89
65573;SHT30;52214;50.940;13.996;2022-12-20T07:33:25;0.24;96.85
65573;SHT30;52214;50.940;13.996;2022-12-20T07:35:51;0.32;97.01
65573;SHT30;52214;50.940;13.996;2022-12-20T07:38:16;0.34;97.14
65573;SHT30;52214;50.940;13.996;2022-12-20T07:40:42;0.38;96.60
65573;SHT30;52214;50.940;13.996;2022-12-20T07:43:08;0.31;96.67
65573;SHT30;52214;50.940;13.996;2022-12-20T07:45:35;0.28;96.49
65573;SHT30;52214;50.940;13.996;2022-12-20T07:50:36;0.37;97.05
65573;SHT30;52214;50.940;13.996;2022-12-20T07:53:04;0.40;96.82
65573;SHT30;52214;50.940;13.996;2022-12-20T07:55:30;0.31;96.44
65573;SHT30;52214;50.940;13.996;2022-12-20T07:58:01;0.40;96.37
65573;SHT30;52214;50.940;13.996;2022-12-20T08:00:28;0.31;96.77
65573;SHT30;52214;50.940;13.996;2022-12-20T08:03:10;0.26;96.78
65573;SHT30;52214;50.940;13.996;2022-12-20T08:05:40;0.31;96.44
65573;SHT30;52214;50.940;13.996;2022-12-20T08:08:08;0.31;96.10
65573;SHT30;52214;50.940;13.996;2022-12-20T08:10:35;0.40;95.95
65573;SHT30;52214;50.940;13.996;2022-12-20T08:13:03;0.53;96.07
65573;SHT30;52214;50.940;13.996;2022-12-20T08:15:29;0.44;95.58
65573;SHT30;52214;50.940;13.996;2022-12-20T08:17:54;0.51;95.65
65573;SHT30;52214;50.940;13.996;2022-12-20T08:20:20;0.65;94.68
65573;SHT30;52214;50.940;13.996;2022-12-20T08:22:45;0.48;94.92
65573;SHT30;52214;50.940;13.996;2022-12-20T08:25:11;0.61;94.04
65573;SHT30;52214;50.940;13.996;2022-12-20T08:27:37;0.52;94.53
65573;SHT30;52214;50.940;13.996;2022-12-20T08:30:03;0.61;94.56
65573;SHT30;52214;50.940;13.996;2022-12-20T08:32:29;0.55;93.64
65573;SHT30;52214;50.940;13.996;2022-12-20T08:34:54;0.59;94.58
65573;SHT30;52214;50.940;13.996;2022-12-20T08:37:20;0.58;94.14
65573;SHT30;52214;50.940;13.996;2022-12-20T08:39:46;0.62;94.56
65573;SHT30;52214;50.940;13.996;2022-12-20T08:42:11;0.62;94.86
65573;SHT30;52214;50.940;13.996;2022-12-20T08:44:37;0.80;94.30
65573;SHT30;52214;50.940;13.996;2022-12-20T08:47:03;0.87;94.46
65573;SHT30;52214;50.940;13.996;2022-12-20T08:49:28;0.98;93.93
65573;SHT30;52214;50.940;13.996;2022-12-20T08:51:54;0.94;94.06
65573;SHT30;52214;50.940;13.996;2022-12-20T08:54:19;1.03;93.40
65573;SHT30;52214;50.940;13.996;2022-12-20T08:56:45;1.07;93.15
65573;SHT30;52214;50.940;13.996;2022-12-20T08:59:10;0.83;92.61
65573;SHT30;52214;50.940;13.996;2022-12-20T09:01:36;0.83;93.56
65573;SHT30;52214;50.940;13.996;2022-12-20T09:04:03;0.98;93.21
65573;SHT30;52214;50.940;13.996;2022-12-20T09:06:29;0.98;92.99
65573;SHT30;52214;50.940;13.996;2022-12-20T09:08:55;1.03;93.07
65573;SHT30;52214;50.940;13.996;2022-12-20T09:11:23;1.21;92.99
65573;SHT30;52214;50.940;13.996;2022-12-20T09:13:51;1.20;93.03
65573;SHT30;52214;50.940;13.996;2022-12-20T09:16:20;1.31;92.40
65573;SHT30;52214;50.940;13.996;2022-12-20T09:18:53;1.48;92.57
65573;SHT30;52214;50.940;13.996;2022-12-20T09:21:19;1.77;91.63
65573;SHT30;52214;50.940;13.996;2022-12-20T09:23:46;1.48;91.50
65573;SHT30;52214;50.940;13.996;2022-12-20T09:26:14;1.62;90.92
65573;SHT30;52214;50.940;13.996;2022-12-20T09:28:40;1.83;91.10
65573;SHT30;52214;50.940;13.996;2022-12-20T09:31:09;1.66;91.15
65573;SHT30;52214;50.940;13.996;2022-12-20T09:33:36;1.62;91.21
65573;SHT30;52214;50.940;13.996;2022-12-20T09:36:02;1.64;91.67
65573;SHT30;52214;50.940;13.996;2022-12-20T09:38:29;1.80;91.57
65573;SHT30;52214;50.940;13.996;2022-12-20T09:41:04;1.97;91.00
65573;SHT30;52214;50.940;13.996;2022-12-20T09:43:31;1.79;90.32
65573;SHT30;52214;50.940;13.996;2022-12-20T09:46:00;2.20;90.01
65573;SHT30;52214;50.940;13.996;2022-12-20T09:48:32;2.04;89.68
65573;SHT30;52214;50.940;13.996;2022-12-20T09:54:20;1.91;90.37
65573;SHT30;52214;50.940;13.996;2022-12-20T09:56:57;2.00;90.39
65573;SHT30;52214;50.940;13.996;2022-12-20T09:59:24;1.96;90.54
65573;SHT30;52214;50.940;13.996;2022-12-20T10:01:50;1.94;90.38
65573;SHT30;52214;50.940;13.996;2022-12-20T10:04:22;2.42;89.55
65573;SHT30;52214;50.940;13.996;2022-12-20T10:07:09;2.44;89.05
65573;SHT30;52214;50.940;13.996;2022-12-20T10:10:18;2.83;88.24
65573;SHT30;52214;50.940;13.996;2022-12-20T10:15:35;2.98;87.27
65573;SHT30;52214;50.940;13.996;2022-12-20T10:23:27;2.42;88.70
65573;SHT30;52214;50.940;13.996;2022-12-20T10:25:56;2.25;89.55
65573;SHT30;52214;50.940;13.996;2022-12-20T10:28:28;2.14;90.01
65573;SHT30;52214;50.940;13.996;2022-12-20T10:30:58;1.96;90.92
65573;SHT30;52214;50.940;13.996;2022-12-20T10:33:26;2.06;90.92
65573;SHT30;52214;50.940;13.996;2022-12-20T10:35:52;2.04;91.50
65573;SHT30;52214;50.940;13.996;2022-12-20T10:38:18;1.93;91.65
65573;SHT30;52214;50.940;13.996;2022-12-20T10:43:21;1.73;92.12
65573;SHT30;52214;50.940;13.996;2022-12-20T10:48:36;1.39;92.31
65573;SHT30;52214;50.940;13.996;2022-12-20T10:53:59;1.84;92.20
65573;SHT30;52214;50.940;13.996;2022-12-20T10:56:30;1.70;92.45
65573;SHT30;52214;50.940;13.996;2022-12-20T10:59:02;1.72;92.01
65573;SHT30;52214;50.940;13.996;2022-12-20T11:01:32;1.67;92.67
65573;SHT30;52214;50.940;13.996;2022-12-20T11:04:02;1.62;92.70
65573;SHT30;52214;50.940;13.996;2022-12-20T11:12:13;1.34;92.45
65573;SHT30;52214;50.940;13.996;2022-12-20T11:14:41;1.28;93.61
65573;SHT30;52214;50.940;13.996;2022-12-20T11:17:32;1.21;93.49
65573;SHT30;52214;50.940;13.996;2022-12-20T11:20:15;1.30;92.73
65573;SHT30;52214;50.940;13.996;2022-12-20T11:23:14;1.30;93.14
65573;SHT30;52214;50.940;13.996;2022-12-20T11:31:17;1.97;90.49
65573;SHT30;52214;50.940;13.996;2022-12-20T11:39:19;1.87;90.94
65573;SHT30;52214;50.940;13.996;2022-12-20T11:42:04;1.90;90.83
65573;SHT30;52214;50.940;13.996;2022-12-20T11:50:26;2.20;89.53
65573;SHT30;52214;50.940;13.996;2022-12-20T11:55:48;2.15;90.25
65573;SHT30;52214;50.940;13.996;2022-12-20T11:58:45;1.94;90.89
65573;SHT30;52214;50.940;13.996;2022-12-20T12:01:15;2.00;91.18
65573;SHT30;52214;50.940;13.996;2022-12-20T12:04:13;1.81;91.82
65573;SHT30;52214;50.940;13.996;2022-12-20T12:06:46;1.94;91.23
65573;SHT30;52214;50.940;13.996;2022-12-20T12:12:13;1.98;90.24
65573;SHT30;52214;50.940;13.996;2022-12-20T12:17:23;2.34;90.32
65573;SHT30;52214;50.940;13.996;2022-12-20T12:19:55;2.50;90.05
65573;SHT30;52214;50.940;13.996;2022-12-20T12:22:27;2.69;89.20
65573;SHT30;52214;50.940;13.996;2022-12-20T12:24:57;2.50;89.12
65573;SHT30;52214;50.940;13.996;2022-12-20T12:27:26;2.49;88.90
65573;SHT30;52214;50.940;13.996;2022-12-20T12:29:53;2.18;90.50
65573;SHT30;52214;50.940;13.996;2022-12-20T12:32:46;1.96;90.43
65573;SHT30;52214;50.940;13.996;2022-12-20T12:51:21;1.05;93.92
65573;SHT30;52214;50.940;13.996;2022-12-20T12:53:50;1.15;94.14
65573;SHT30;52214;50.940;13.996;2022-12-20T13:01:56;1.08;94.54
65573;SHT30;52214;50.940;13.996;2022-12-20T13:04:58;1.04;94.36
65573;SHT30;52214;50.940;13.996;2022-12-20T13:07:29;1.08;94.40
65573;SHT30;52214;50.940;13.996;2022-12-20T13:20:30;0.84;94.46
65573;SHT30;52214;50.940;13.996;2022-12-20T13:25:37;0.90;94.23
65573;SHT30;52214;50.940;13.996;2022-12-20T13:30:44;0.81;94.21
65573;SHT30;52214;50.940;13.996;2022-12-20T13:33:46;0.83;93.91
65573;SHT30;52214;50.940;13.996;2022-12-20T13:41:35;0.86;93.88
65573;SHT30;52214;50.940;13.996;2022-12-20T13:44:17;0.87;94.53
65573;SHT30;52214;50.940;13.996;2022-12-20T13:49:47;0.81;93.89
65573;SHT30;52214;50.940;13.996;2022-12-20T13:52:24;0.81;94.62
65573;SHT30;52214;50.940;13.996;2022-12-20T13:54:54;0.70;95.14
65573;SHT30;52214;50.940;13.996;2022-12-20T13:57:28;0.76;94.92
65573;SHT30;52214;50.940;13.996;2022-12-20T13:59:56;0.70;94.81
65573;SHT30;52214;50.940;13.996;2022-12-20T14:02:26;0.73;94.88
65573;SHT30;52214;50.940;13.996;2022-12-20T14:04:59;0.68;95.39
65573;SHT30;52214;50.940;13.996;2022-12-20T14:07:27;0.65;95.15
65573;SHT30;52214;50.940;13.996;2022-12-20T14:09:57;0.72;94.71
65573;SHT30;52214;50.940;13.996;2022-12-20T14:12:23;0.72;94.77
65573;SHT30;52214;50.940;13.996;2022-12-20T14:14:50;0.75;94.67
65573;SHT30;52214;50.940;13.996;2022-12-20T14:17:30;0.69;94.86
65573;SHT30;52214;50.940;13.996;2022-12-20T14:22:51;0.59;95.25
65573;SHT30;52214;50.940;13.996;2022-12-20T14:25:44;0.63;95.49
65573;SHT30;52214;50.940;13.996;2022-12-20T14:34:22;0.56;95.98
65573;SHT30;52214;50.940;13.996;2022-12-20T14:36:49;0.61;95.59
65573;SHT30;52214;50.940;13.996;2022-12-20T14:39:53;0.61;95.64
65573;SHT30;52214;50.940;13.996;2022-12-20T14:42:19;0.61;95.40
65573;SHT30;52214;50.940;13.996;2022-12-20T14:44:45;0.58;95.84
65573;SHT30;52214;50.940;13.996;2022-12-20T14:47:18;0.59;95.82
65573;SHT30;52214;50.940;13.996;2022-12-20T14:49:57;0.62;95.84
65573;SHT30;52214;50.940;13.996;2022-12-20T14:52:29;0.61;95.40
65573;SHT30;52214;50.940;13.996;2022-12-20T15:08:16;0.44;96.16
65573;SHT30;52214;50.940;13.996;2022-12-20T15:13:37;0.46;96.13
65573;SHT30;52214;50.940;13.996;2022-12-20T15:16:20;0.56;95.85
65573;SHT30;52214;50.940;13.996;2022-12-20T15:18:51;0.55;95.97
65573;SHT30;52214;50.940;13.996;2022-12-20T15:23:51;0.53;96.25
65573;SHT30;52214;50.940;13.996;2022-12-20T15:26:20;0.59;95.86
65573;SHT30;52214;50.940;13.996;2022-12-20T15:28:46;0.63;95.44
65573;SHT30;52214;50.940;13.996;2022-12-20T15:31:15;0.65;95.54
65573;SHT30;52214;50.940;13.996;2022-12-20T15:33:42;0.63;95.41
65573;SHT30;52214;50.940;13.996;2022-12-20T15:36:21;0.66;95.41
65573;SHT30;52214;50.940;13.996;2022-12-20T15:38:47;0.70;95.30
65573;SHT30;52214;50.940;13.996;2022-12-20T15:41:29;0.61;95.91
65573;SHT30;52214;50.940;13.996;2022-12-20T15:43:58;0.58;95.91
65573;SHT30;52214;50.940;13.996;2022-12-20T15:46:24;0.69;95.82
65573;SHT30;52214;50.940;13.996;2022-12-20T15:48:50;0.58;95.86
65573;SHT30;52214;50.940;13.996;2022-12-20T15:51:29;0.65;95.44
65573;SHT30;52214;50.940;13.996;2022-12-20T15:53:55;0.65;95.49
65573;SHT30;52214;50.940;13.996;2022-12-20T15:56:22;0.63;95.68
65573;SHT30;52214;50.940;13.996;2022-12-20T15:58:49;0.61;95.38
65573;SHT30;52214;50.940;13.996;2022-12-20T16:01:19;0.66;95.56
65573;SHT30;52214;50.940;13.996;2022-12-20T16:03:45;0.68;95.10
65573;SHT30;52214;50.940;13.996;2022-12-20T16:06:11;0.63;94.87
65573;SHT30;52214;50.940;13.996;2022-12-20T16:08:38;0.69;94.81
65573;SHT30;52214;50.940;13.996;2022-12-20T16:11:05;0.76;94.79
65573;SHT30;52214;50.940;13.996;2022-12-20T16:13:31;0.75;94.76
65573;SHT30;52214;50.940;13.996;2022-12-20T16:15:56;0.72;95.15
65573;SHT30;52214;50.940;13.996;2022-12-20T16:18:24;0.75;95.07
65573;SHT30;52214;50.940;13.996;2022-12-20T16:20:50;0.69;95.48
65573;SHT30;52214;50.940;13.996;2022-12-20T16:23:18;0.69;95.00
65573;SHT30;52214;50.940;13.996;2022-12-20T16:25:45;0.69;94.92
65573;SHT30;52214;50.940;13.996;2022-12-20T16:28:10;0.68;95.42
65573;SHT30;52214;50.940;13.996;2022-12-20T16:30:36;0.72;95.39
65573;SHT30;52214;50.940;13.996;2022-12-20T16:33:02;0.65;95.66
65573;SHT30;52214;50.940;13.996;2022-12-20T16:35:33;0.69;95.52
65573;SHT30;52214;50.940;13.996;2022-12-20T16:38:00;0.59;95.25
65573;SHT30;52214;50.940;13.996;2022-12-20T16:40:28;0.66;95.30
65573;SHT30;52214;50.940;13.996;2022-12-20T16:42:55;0.59;95.57
65573;SHT30;52214;50.940;13.996;2022-12-20T16:45:23;0.62;95.82
65573;SHT30;52214;50.940;13.996;2022-12-20T16:47:49;0.58;95.91
65573;SHT30;52214;50.940;13.996;2022-12-20T16:50:15;0.58;95.99
65573;SHT30;52214;50.940;13.996;2022-12-20T16:52:41;0.65;95.66
65573;SHT30;52214;50.940;13.996;2022-12-20T16:55:26;0.62;95.56
65573;SHT30;52214;50.940;13.996;2022-12-20T16:57:52;0.61;95.59
65573;SHT30;52214;50.940;13.996;2022-12-20T17:00:23;0.61;95.18
65573;SHT30;52214;50.940;13.996;2022-12-20T17:02:50;0.56;95.58
65573;SHT30;52214;50.940;13.996;2022-12-20T17:05:27;0.58;95.38
65573;SHT30;52214;50.940;13.996;2022-12-20T17:07:54;0.63;95.40
65573;SHT30;52214;50.940;13.996;2022-12-20T17:10:20;0.56;95.86
65573;SHT30;52214;50.940;13.996;2022-12-20T17:12:46;0.52;95.89
65573;SHT30;52214;50.940;13.996;2022-12-20T17:15:30;0.51;95.67
65573;SHT30;52214;50.940;13.996;2022-12-20T17:17:56;0.55;96.07
65573;SHT30;52214;50.940;13.996;2022-12-20T17:20:22;0.65;95.50
65573;SHT30;52214;50.940;13.996;2022-12-20T17:22:51;0.55;95.40
65573;SHT30;52214;50.940;13.996;2022-12-20T17:25:20;0.59;95.35
65573;SHT30;52214;50.940;13.996;2022-12-20T17:27:47;0.65;95.25
65573;SHT30;52214;50.940;13.996;2022-12-20T17:30:13;0.65;95.26
65573;SHT30;52214;50.940;13.996;2022-12-20T17:32:39;0.66;95.00
65573;SHT30;52214;50.940;13.996;2022-12-20T17:35:05;0.65;95.45
65573;SHT30;52214;50.940;13.996;2022-12-20T17:37:32;0.61;95.35
65573;SHT30;52214;50.940;13.996;2022-12-20T17:39:59;0.59;95.00
65573;SHT30;52214;50.940;13.996;2022-12-20T17:42:24;0.62;94.95
65573;SHT30;52214;50.940;13.996;2022-12-20T17:44:50;0.56;95.01
65573;SHT30;52214;50.940;13.996;2022-12-20T17:47:15;0.53;95.15
65573;SHT30;52214;50.940;13.996;2022-12-20T17:49:41;0.59;95.21
65573;SHT30;52214;50.940;13.996;2022-12-20T17:52:16;0.48;95.86
65573;SHT30;52214;50.940;13.996;2022-12-20T17:54:41;0.58;95.31
65573;SHT30;52214;50.940;13.996;2022-12-20T17:57:13;0.59;95.60
65573;SHT30;52214;50.940;13.996;2022-12-20T17:59:39;0.63;95.48
65573;SHT30;52214;50.940;13.996;2022-12-20T18:02:19;0.59;95.62